sensor_id;sensor_type;location;lat;lon;timestamp;P1;durP1;ratioP1;P2;durP2;ratioP2
27293;SDS011;14785;52.556;13.430;2024-02-21T00:00:15;47.37;;;33.90;;
27293;SDS011;14785;52.556;13.430;2024-02-21T00:05:07;41.27;;;22.93;;
27293;SDS011;14785;52.556;13.430;2024-02-21T00:07:32;41.37;;;31.67;;
27293;SDS011;14785;52.556;13.430;2024-02-21T00:09:58;75.03;;;68.13;;
27293;SDS011;14785;52.556;13.430;2024-02-21T00:12:23;76.00;;;68.63;;
27293;SDS011;14785;52.556;13.430;2024-02-21T00:14:49;84.97;;;77.37;;
27293;SDS011;14785;52.556;13.430;2024-02-21T00:17:16;43.47;;;27.63;;
27293;SDS011;14785;52.556;13.430;2024-02-21T00:19:41;43.88;;;35.28;;
27293;SDS011;14785;52.556;13.430;2024-02-21T00:22:07;43.03;;;21.97;;
27293;SDS011;14785;52.556;13.430;2024-02-21T00:24:33;74.10;;;67.45;;
27293;SDS011;14785;52.556;13.430;2024-02-21T00:26:59;41.57;;;27.67;;
27293;SDS011;14785;52.556;13.430;2024-02-21T00:31:50;38.65;;;22.20;;
27293;SDS011;14785;52.556;13.430;2024-02-21T00:34:16;38.17;;;21.90;;
27293;SDS011;14785;52.556;13.430;2024-02-21T00:39:08;44.63;;;24.63;;
27293;SDS011;14785;52.556;13.430;2024-02-21T00:41:33;36.50;;;20.77;;
27293;SDS011;14785;52.556;13.430;2024-02-21T00:43:59;41.33;;;15.67;;
27293;SDS011;14785;52.556;13.430;2024-02-21T00:46:24;37.63;;;13.57;;
27293;SDS011;14785;52.556;13.430;2024-02-21T00:48:49;40.57;;;14.73;;
27293;SDS011;14785;52.556;13.430;2024-02-21T00:51:17;37.03;;;24.63;;
27293;SDS011;14785;52.556;13.430;2024-02-21T00:53:42;41.67;;;23.83;;
27293;SDS011;14785;52.556;13.430;2024-02-21T00:56:09;48.28;;;26.92;;
27293;SDS011;14785;52.556;13.430;2024-02-21T00:58:35;41.95;;;20.05;;
27293;SDS011;14785;52.556;13.430;2024-02-21T01:01:00;35.63;;;21.27;;
27293;SDS011;14785;52.556;13.430;2024-02-21T01:03:26;35.88;;;22.65;;
27293;SDS011;14785;52.556;13.430;2024-02-21T01:05:52;41.43;;;21.47;;
27293;SDS011;14785;52.556;13.430;2024-02-21T01:10:43;39.53;;;22.13;;
27293;SDS011;14785;52.556;13.430;2024-02-21T01:13:09;32.70;;;20.53;;
27293;SDS011;14785;52.556;13.430;2024-02-21T01:15:34;36.57;;;17.80;;
27293;SDS011;14785;52.556;13.430;2024-02-21T01:18:01;36.70;;;25.48;;
27293;SDS011;14785;52.556;13.430;2024-02-21T01:20:27;53.63;;;48.67;;
27293;SDS011;14785;52.556;13.430;2024-02-21T01:22:52;45.03;;;40.53;;
27293;SDS011;14785;52.556;13.430;2024-02-21T01:25:18;34.13;;;16.27;;
27293;SDS011;14785;52.556;13.430;2024-02-21T01:27:43;45.23;;;40.43;;
27293;SDS011;14785;52.556;13.430;2024-02-21T01:30:09;43.63;;;32.30;;
27293;SDS011;14785;52.556;13.430;2024-02-21T01:32:35;51.55;;;40.10;;
27293;SDS011;14785;52.556;13.430;2024-02-21T01:35:01;51.97;;;42.40;;
27293;SDS011;14785;52.556;13.430;2024-02-21T01:37:26;32.30;;;21.60;;
27293;SDS011;14785;52.556;13.430;2024-02-21T01:39:52;42.03;;;21.67;;
27293;SDS011;14785;52.556;13.430;2024-02-21T01:42:18;32.90;;;25.75;;
27293;SDS011;14785;52.556;13.430;2024-02-21T01:44:44;34.10;;;18.27;;
27293;SDS011;14785;52.556;13.430;2024-02-21T01:47:10;38.47;;;17.00;;
27293;SDS011;14785;52.556;13.430;2024-02-21T01:49:36;32.72;;;15.73;;
27293;SDS011;14785;52.556;13.430;2024-02-21T01:52:02;35.95;;;17.75;;
27293;SDS011;14785;52.556;13.430;2024-02-21T01:54:28;28.48;;;20.05;;
27293;SDS011;14785;52.556;13.430;2024-02-21T01:56:54;33.65;;;17.15;;
27293;SDS011;14785;52.556;13.430;2024-02-21T01:59:19;37.85;;;16.90;;
27293;SDS011;14785;52.556;13.430;2024-02-21T02:01:46;36.58;;;16.15;;
27293;SDS011;14785;52.556;13.430;2024-02-21T02:04:12;30.88;;;18.50;;
27293;SDS011;14785;52.556;13.430;2024-02-21T02:06:39;28.83;;;17.30;;
27293;SDS011;14785;52.556;13.430;2024-02-21T02:09:05;33.90;;;18.25;;
27293;SDS011;14785;52.556;13.430;2024-02-21T02:11:32;32.50;;;16.60;;
27293;SDS011;14785;52.556;13.430;2024-02-21T02:13:57;31.97;;;17.80;;
27293;SDS011;14785;52.556;13.430;2024-02-21T02:16:22;29.87;;;15.47;;
27293;SDS011;14785;52.556;13.430;2024-02-21T02:18:48;28.10;;;14.70;;
27293;SDS011;14785;52.556;13.430;2024-02-21T02:21:16;35.70;;;18.87;;
27293;SDS011;14785;52.556;13.430;2024-02-21T02:23:59;33.63;;;14.95;;
27293;SDS011;14785;52.556;13.430;2024-02-21T02:26:24;35.92;;;13.77;;
27293;SDS011;14785;52.556;13.430;2024-02-21T02:28:49;30.57;;;13.93;;
27293;SDS011;14785;52.556;13.430;2024-02-21T02:31:15;41.90;;;29.23;;
27293;SDS011;14785;52.556;13.430;2024-02-21T02:33:42;41.67;;;37.17;;
27293;SDS011;14785;52.556;13.430;2024-02-21T02:36:09;36.83;;;20.75;;
27293;SDS011;14785;52.556;13.430;2024-02-21T02:38:34;38.47;;;25.87;;
27293;SDS011;14785;52.556;13.430;2024-02-21T02:41:00;33.20;;;21.37;;
27293;SDS011;14785;52.556;13.430;2024-02-21T02:43:25;40.67;;;23.67;;
27293;SDS011;14785;52.556;13.430;2024-02-21T02:45:50;37.77;;;25.40;;
27293;SDS011;14785;52.556;13.430;2024-02-21T02:48:16;42.90;;;28.83;;
27293;SDS011;14785;52.556;13.430;2024-02-21T02:50:42;47.92;;;34.45;;
27293;SDS011;14785;52.556;13.430;2024-02-21T02:53:07;39.90;;;35.33;;
27293;SDS011;14785;52.556;13.430;2024-02-21T02:55:32;32.90;;;21.63;;
27293;SDS011;14785;52.556;13.430;2024-02-21T02:57:58;50.83;;;44.80;;
27293;SDS011;14785;52.556;13.430;2024-02-21T03:00:24;53.13;;;48.08;;
27293;SDS011;14785;52.556;13.430;2024-02-21T03:02:52;45.60;;;27.20;;
27293;SDS011;14785;52.556;13.430;2024-02-21T03:05:18;49.60;;;38.30;;
27293;SDS011;14785;52.556;13.430;2024-02-21T03:07:46;40.38;;;26.98;;
27293;SDS011;14785;52.556;13.430;2024-02-21T03:12:38;44.30;;;35.53;;
27293;SDS011;14785;52.556;13.430;2024-02-21T03:15:04;58.10;;;48.33;;
27293;SDS011;14785;52.556;13.430;2024-02-21T03:17:30;46.55;;;38.45;;
27293;SDS011;14785;52.556;13.430;2024-02-21T03:19:56;65.88;;;59.13;;
27293;SDS011;14785;52.556;13.430;2024-02-21T03:22:22;62.50;;;51.73;;
27293;SDS011;14785;52.556;13.430;2024-02-21T03:24:47;50.43;;;37.67;;
27293;SDS011;14785;52.556;13.430;2024-02-21T03:27:13;51.58;;;39.03;;
27293;SDS011;14785;52.556;13.430;2024-02-21T03:29:38;136.40;;;126.27;;
27293;SDS011;14785;52.556;13.430;2024-02-21T03:32:04;205.17;;;191.10;;
27293;SDS011;14785;52.556;13.430;2024-02-21T03:34:29;76.97;;;70.20;;
27293;SDS011;14785;52.556;13.430;2024-02-21T03:36:55;51.03;;;30.23;;
27293;SDS011;14785;52.556;13.430;2024-02-21T03:39:20;54.43;;;43.10;;
27293;SDS011;14785;52.556;13.430;2024-02-21T03:41:46;129.75;;;119.45;;
27293;SDS011;14785;52.556;13.430;2024-02-21T03:44:12;118.43;;;108.67;;
27293;SDS011;14785;52.556;13.430;2024-02-21T03:46:37;56.43;;;38.73;;
27293;SDS011;14785;52.556;13.430;2024-02-21T03:49:03;58.95;;;48.88;;
27293;SDS011;14785;52.556;13.430;2024-02-21T03:51:28;87.23;;;79.93;;
27293;SDS011;14785;52.556;13.430;2024-02-21T03:53:54;56.07;;;50.53;;
27293;SDS011;14785;52.556;13.430;2024-02-21T03:56:19;58.63;;;47.93;;
27293;SDS011;14785;52.556;13.430;2024-02-21T03:58:44;53.20;;;43.53;;
27293;SDS011;14785;52.556;13.430;2024-02-21T04:01:10;50.10;;;44.57;;
27293;SDS011;14785;52.556;13.430;2024-02-21T04:03:35;75.70;;;68.13;;
27293;SDS011;14785;52.556;13.430;2024-02-21T04:06:01;79.17;;;71.70;;
27293;SDS011;14785;52.556;13.430;2024-02-21T04:08:26;64.67;;;56.60;;
27293;SDS011;14785;52.556;13.430;2024-02-21T04:10:51;65.20;;;29.57;;
27293;SDS011;14785;52.556;13.430;2024-02-21T04:13:18;45.87;;;33.03;;
27293;SDS011;14785;52.556;13.430;2024-02-21T04:15:43;47.88;;;39.58;;
27293;SDS011;14785;52.556;13.430;2024-02-21T04:18:09;50.70;;;37.53;;
27293;SDS011;14785;52.556;13.430;2024-02-21T04:20:34;54.00;;;37.73;;
27293;SDS011;14785;52.556;13.430;2024-02-21T04:23:00;62.95;;;52.80;;
27293;SDS011;14785;52.556;13.430;2024-02-21T04:25:26;61.33;;;54.43;;
27293;SDS011;14785;52.556;13.430;2024-02-21T04:27:51;64.23;;;54.73;;
27293;SDS011;14785;52.556;13.430;2024-02-21T04:30:17;62.00;;;53.55;;
27293;SDS011;14785;52.556;13.430;2024-02-21T04:32:44;59.90;;;53.55;;
27293;SDS011;14785;52.556;13.430;2024-02-21T04:35:10;64.63;;;57.70;;
27293;SDS011;14785;52.556;13.430;2024-02-21T04:37:36;59.03;;;46.72;;
27293;SDS011;14785;52.556;13.430;2024-02-21T04:40:03;64.95;;;57.92;;
27293;SDS011;14785;52.556;13.430;2024-02-21T04:42:28;61.00;;;49.00;;
27293;SDS011;14785;52.556;13.430;2024-02-21T04:44:55;69.72;;;46.05;;
27293;SDS011;14785;52.556;13.430;2024-02-21T04:47:20;71.73;;;59.50;;
27293;SDS011;14785;52.556;13.430;2024-02-21T04:49:48;57.85;;;50.50;;
27293;SDS011;14785;52.556;13.430;2024-02-21T04:52:15;59.33;;;47.40;;
27293;SDS011;14785;52.556;13.430;2024-02-21T04:54:40;70.17;;;64.07;;
27293;SDS011;14785;52.556;13.430;2024-02-21T04:57:06;63.13;;;56.70;;
27293;SDS011;14785;52.556;13.430;2024-02-21T04:59:32;64.47;;;54.35;;
27293;SDS011;14785;52.556;13.430;2024-02-21T05:01:59;65.83;;;58.80;;
27293;SDS011;14785;52.556;13.430;2024-02-21T05:06:49;52.03;;;38.07;;
27293;SDS011;14785;52.556;13.430;2024-02-21T05:09:15;47.23;;;39.47;;
27293;SDS011;14785;52.556;13.430;2024-02-21T05:11:40;57.90;;;48.13;;
27293;SDS011;14785;52.556;13.430;2024-02-21T05:14:06;49.80;;;33.97;;
27293;SDS011;14785;52.556;13.430;2024-02-21T05:16:32;49.08;;;32.63;;
27293;SDS011;14785;52.556;13.430;2024-02-21T05:18:58;53.67;;;32.90;;
27293;SDS011;14785;52.556;13.430;2024-02-21T05:21:24;55.47;;;35.93;;
27293;SDS011;14785;52.556;13.430;2024-02-21T05:23:50;62.27;;;48.37;;
27293;SDS011;14785;52.556;13.430;2024-02-21T05:26:25;70.80;;;63.65;;
27293;SDS011;14785;52.556;13.430;2024-02-21T05:28:52;65.40;;;58.73;;
27293;SDS011;14785;52.556;13.430;2024-02-21T05:31:18;52.80;;;45.67;;
27293;SDS011;14785;52.556;13.430;2024-02-21T05:33:43;70.43;;;64.38;;
27293;SDS011;14785;52.556;13.430;2024-02-21T05:38:35;66.28;;;39.95;;
27293;SDS011;14785;52.556;13.430;2024-02-21T05:41:01;54.92;;;44.45;;
27293;SDS011;14785;52.556;13.430;2024-02-21T05:43:26;63.93;;;50.10;;
27293;SDS011;14785;52.556;13.430;2024-02-21T05:45:52;55.90;;;36.13;;
27293;SDS011;14785;52.556;13.430;2024-02-21T05:48:17;56.57;;;48.00;;
27293;SDS011;14785;52.556;13.430;2024-02-21T05:50:43;55.90;;;43.50;;
27293;SDS011;14785;52.556;13.430;2024-02-21T05:53:08;93.93;;;85.60;;
27293;SDS011;14785;52.556;13.430;2024-02-21T05:55:35;71.75;;;63.90;;
27293;SDS011;14785;52.556;13.430;2024-02-21T05:58:01;67.30;;;60.43;;
27293;SDS011;14785;52.556;13.430;2024-02-21T06:00:27;70.82;;;62.03;;
27293;SDS011;14785;52.556;13.430;2024-02-21T06:02:52;81.87;;;74.43;;
27293;SDS011;14785;52.556;13.430;2024-02-21T06:05:18;77.70;;;70.30;;
27293;SDS011;14785;52.556;13.430;2024-02-21T06:07:43;71.37;;;58.47;;
27293;SDS011;14785;52.556;13.430;2024-02-21T06:12:35;54.30;;;38.97;;
27293;SDS011;14785;52.556;13.430;2024-02-21T06:15:01;50.28;;;41.17;;
27293;SDS011;14785;52.556;13.430;2024-02-21T06:17:27;55.42;;;47.40;;
27293;SDS011;14785;52.556;13.430;2024-02-21T06:19:53;53.90;;;46.60;;
27293;SDS011;14785;52.556;13.430;2024-02-21T06:22:19;56.58;;;49.95;;
27293;SDS011;14785;52.556;13.430;2024-02-21T06:27:11;55.47;;;42.15;;
27293;SDS011;14785;52.556;13.430;2024-02-21T06:29:36;56.10;;;42.70;;
27293;SDS011;14785;52.556;13.430;2024-02-21T06:32:02;55.00;;;41.20;;
27293;SDS011;14785;52.556;13.430;2024-02-21T06:34:28;55.85;;;39.13;;
27293;SDS011;14785;52.556;13.430;2024-02-21T06:36:57;66.40;;;58.97;;
27293;SDS011;14785;52.556;13.430;2024-02-21T06:39:22;59.67;;;51.27;;
27293;SDS011;14785;52.556;13.430;2024-02-21T06:41:48;72.60;;;64.60;;
27293;SDS011;14785;52.556;13.430;2024-02-21T06:44:15;86.78;;;79.13;;
27293;SDS011;14785;52.556;13.430;2024-02-21T06:46:41;128.20;;;118.28;;
27293;SDS011;14785;52.556;13.430;2024-02-21T06:49:06;108.20;;;99.50;;
27293;SDS011;14785;52.556;13.430;2024-02-21T06:51:31;84.20;;;76.73;;
27293;SDS011;14785;52.556;13.430;2024-02-21T06:53:57;55.83;;;49.10;;
27293;SDS011;14785;52.556;13.430;2024-02-21T06:56:23;56.85;;;49.10;;
27293;SDS011;14785;52.556;13.430;2024-02-21T06:58:54;45.65;;;35.78;;
27293;SDS011;14785;52.556;13.430;2024-02-21T07:01:20;49.67;;;34.35;;
27293;SDS011;14785;52.556;13.430;2024-02-21T07:03:46;45.50;;;30.70;;
27293;SDS011;14785;52.556;13.430;2024-02-21T07:06:11;49.73;;;32.40;;
27293;SDS011;14785;52.556;13.430;2024-02-21T07:11:04;50.05;;;38.65;;
27293;SDS011;14785;52.556;13.430;2024-02-21T07:13:29;54.03;;;47.05;;
27293;SDS011;14785;52.556;13.430;2024-02-21T07:15:56;65.38;;;59.53;;
27293;SDS011;14785;52.556;13.430;2024-02-21T07:18:21;55.70;;;50.40;;
27293;SDS011;14785;52.556;13.430;2024-02-21T07:20:48;47.43;;;42.90;;
27293;SDS011;14785;52.556;13.430;2024-02-21T07:25:38;45.80;;;32.23;;
27293;SDS011;14785;52.556;13.430;2024-02-21T07:28:05;29.42;;;21.30;;
27293;SDS011;14785;52.556;13.430;2024-02-21T07:30:30;41.83;;;34.83;;
27293;SDS011;14785;52.556;13.430;2024-02-21T07:32:56;45.57;;;35.57;;
27293;SDS011;14785;52.556;13.430;2024-02-21T07:35:21;45.37;;;35.53;;
27293;SDS011;14785;52.556;13.430;2024-02-21T07:37:46;44.50;;;35.13;;
27293;SDS011;14785;52.556;13.430;2024-02-21T07:40:15;35.73;;;22.57;;
27293;SDS011;14785;52.556;13.430;2024-02-21T07:42:41;42.75;;;25.67;;
27293;SDS011;14785;52.556;13.430;2024-02-21T07:45:08;40.45;;;24.00;;
27293;SDS011;14785;52.556;13.430;2024-02-21T07:47:34;38.60;;;22.63;;
27293;SDS011;14785;52.556;13.430;2024-02-21T07:49:59;45.22;;;25.20;;
27293;SDS011;14785;52.556;13.430;2024-02-21T07:52:26;35.65;;;22.55;;
27293;SDS011;14785;52.556;13.430;2024-02-21T07:54:51;43.07;;;23.70;;
27293;SDS011;14785;52.556;13.430;2024-02-21T07:57:17;31.47;;;21.70;;
27293;SDS011;14785;52.556;13.430;2024-02-21T07:59:43;33.97;;;21.92;;
27293;SDS011;14785;52.556;13.430;2024-02-21T08:02:08;40.83;;;21.33;;
27293;SDS011;14785;52.556;13.430;2024-02-21T08:04:34;30.70;;;20.73;;
27293;SDS011;14785;52.556;13.430;2024-02-21T08:06:59;33.10;;;28.30;;
27293;SDS011;14785;52.556;13.430;2024-02-21T08:09:29;39.38;;;34.10;;
27293;SDS011;14785;52.556;13.430;2024-02-21T08:11:54;37.40;;;28.25;;
27293;SDS011;14785;52.556;13.430;2024-02-21T08:14:20;41.33;;;25.80;;
27293;SDS011;14785;52.556;13.430;2024-02-21T08:16:46;27.38;;;19.95;;
27293;SDS011;14785;52.556;13.430;2024-02-21T08:19:12;36.10;;;23.25;;
27293;SDS011;14785;52.556;13.430;2024-02-21T08:21:37;33.23;;;24.67;;
27293;SDS011;14785;52.556;13.430;2024-02-21T08:24:03;35.67;;;20.83;;
27293;SDS011;14785;52.556;13.430;2024-02-21T08:26:28;39.28;;;21.42;;
27293;SDS011;14785;52.556;13.430;2024-02-21T08:28:58;34.15;;;22.80;;
27293;SDS011;14785;52.556;13.430;2024-02-21T08:31:25;31.08;;;21.38;;
27293;SDS011;14785;52.556;13.430;2024-02-21T08:33:59;36.90;;;24.33;;
27293;SDS011;14785;52.556;13.430;2024-02-21T08:36:28;36.90;;;26.25;;
27293;SDS011;14785;52.556;13.430;2024-02-21T08:39:00;34.88;;;24.48;;
27293;SDS011;14785;52.556;13.430;2024-02-21T08:41:29;46.85;;;31.45;;
27293;SDS011;14785;52.556;13.430;2024-02-21T08:43:56;38.22;;;27.90;;
27293;SDS011;14785;52.556;13.430;2024-02-21T08:46:21;39.83;;;27.80;;
27293;SDS011;14785;52.556;13.430;2024-02-21T08:48:50;33.08;;;20.95;;
27293;SDS011;14785;52.556;13.430;2024-02-21T08:51:16;32.72;;;21.45;;
27293;SDS011;14785;52.556;13.430;2024-02-21T08:53:43;37.20;;;21.38;;
27293;SDS011;14785;52.556;13.430;2024-02-21T08:56:09;35.65;;;20.65;;
27293;SDS011;14785;52.556;13.430;2024-02-21T08:58:35;33.13;;;20.83;;
27293;SDS011;14785;52.556;13.430;2024-02-21T09:01:02;35.38;;;25.10;;
27293;SDS011;14785;52.556;13.430;2024-02-21T09:03:30;37.30;;;23.83;;
27293;SDS011;14785;52.556;13.430;2024-02-21T09:05:56;30.00;;;21.13;;
27293;SDS011;14785;52.556;13.430;2024-02-21T09:08:22;33.73;;;23.57;;
27293;SDS011;14785;52.556;13.430;2024-02-21T09:10:49;34.67;;;21.73;;
27293;SDS011;14785;52.556;13.430;2024-02-21T09:13:14;32.50;;;22.17;;
27293;SDS011;14785;52.556;13.430;2024-02-21T09:15:40;37.50;;;22.80;;
27293;SDS011;14785;52.556;13.430;2024-02-21T09:18:05;43.00;;;23.47;;
27293;SDS011;14785;52.556;13.430;2024-02-21T09:20:31;29.38;;;22.42;;
27293;SDS011;14785;52.556;13.430;2024-02-21T09:22:56;37.23;;;23.50;;
27293;SDS011;14785;52.556;13.430;2024-02-21T09:25:22;36.40;;;22.27;;
27293;SDS011;14785;52.556;13.430;2024-02-21T09:27:47;36.53;;;22.53;;
27293;SDS011;14785;52.556;13.430;2024-02-21T09:30:13;37.23;;;23.80;;
27293;SDS011;14785;52.556;13.430;2024-02-21T09:32:38;36.10;;;22.93;;
27293;SDS011;14785;52.556;13.430;2024-02-21T09:35:04;37.67;;;24.23;;
27293;SDS011;14785;52.556;13.430;2024-02-21T09:37:32;34.50;;;25.75;;
27293;SDS011;14785;52.556;13.430;2024-02-21T09:39:58;36.08;;;25.13;;
27293;SDS011;14785;52.556;13.430;2024-02-21T09:42:26;40.33;;;27.97;;
27293;SDS011;14785;52.556;13.430;2024-02-21T09:50:43;35.42;;;23.63;;
27293;SDS011;14785;52.556;13.430;2024-02-21T09:53:09;40.00;;;29.02;;
27293;SDS011;14785;52.556;13.430;2024-02-21T09:55:37;39.38;;;27.10;;
27293;SDS011;14785;52.556;13.430;2024-02-21T09:58:05;35.20;;;24.75;;
27293;SDS011;14785;52.556;13.430;2024-02-21T10:00:32;32.88;;;23.45;;
27293;SDS011;14785;52.556;13.430;2024-02-21T10:02:58;32.83;;;22.95;;
27293;SDS011;14785;52.556;13.430;2024-02-21T10:05:24;37.80;;;21.10;;
27293;SDS011;14785;52.556;13.430;2024-02-21T10:07:51;40.33;;;29.25;;
27293;SDS011;14785;52.556;13.430;2024-02-21T10:10:20;37.65;;;28.30;;
27293;SDS011;14785;52.556;13.430;2024-02-21T10:12:53;34.25;;;27.92;;
27293;SDS011;14785;52.556;13.430;2024-02-21T10:15:23;31.52;;;25.52;;
27293;SDS011;14785;52.556;13.430;2024-02-21T10:17:59;33.22;;;23.58;;
27293;SDS011;14785;52.556;13.430;2024-02-21T10:20:25;33.50;;;23.30;;
27293;SDS011;14785;52.556;13.430;2024-02-21T10:23:01;32.50;;;21.17;;
27293;SDS011;14785;52.556;13.430;2024-02-21T10:25:28;32.80;;;24.27;;
27293;SDS011;14785;52.556;13.430;2024-02-21T10:27:55;28.20;;;20.20;;
27293;SDS011;14785;52.556;13.430;2024-02-21T10:30:21;32.10;;;22.37;;
27293;SDS011;14785;52.556;13.430;2024-02-21T10:32:50;32.13;;;21.37;;
27293;SDS011;14785;52.556;13.430;2024-02-21T10:35:32;31.98;;;23.05;;
27293;SDS011;14785;52.556;13.430;2024-02-21T10:37:59;35.42;;;25.73;;
27293;SDS011;14785;52.556;13.430;2024-02-21T10:40:26;40.78;;;26.95;;
27293;SDS011;14785;52.556;13.430;2024-02-21T10:45:25;30.67;;;22.90;;
27293;SDS011;14785;52.556;13.430;2024-02-21T10:48:16;37.45;;;27.98;;
27293;SDS011;14785;52.556;13.430;2024-02-21T10:56:40;37.33;;;25.00;;
27293;SDS011;14785;52.556;13.430;2024-02-21T10:58:49;30.85;;;21.60;;
27293;SDS011;14785;52.556;13.430;2024-02-21T11:01:15;31.70;;;24.77;;
27293;SDS011;14785;52.556;13.430;2024-02-21T11:03:43;37.65;;;27.23;;
27293;SDS011;14785;52.556;13.430;2024-02-21T11:06:11;26.85;;;21.90;;
27293;SDS011;14785;52.556;13.430;2024-02-21T11:08:40;36.28;;;27.15;;
27293;SDS011;14785;52.556;13.430;2024-02-21T11:11:07;28.75;;;23.80;;
27293;SDS011;14785;52.556;13.430;2024-02-21T11:13:35;31.47;;;21.97;;
27293;SDS011;14785;52.556;13.430;2024-02-21T11:16:08;26.48;;;18.70;;
27293;SDS011;14785;52.556;13.430;2024-02-21T11:18:39;25.33;;;20.17;;
27293;SDS011;14785;52.556;13.430;2024-02-21T11:21:05;25.52;;;22.20;;
27293;SDS011;14785;52.556;13.430;2024-02-21T11:23:31;27.20;;;22.27;;
27293;SDS011;14785;52.556;13.430;2024-02-21T11:26:04;29.10;;;23.03;;
27293;SDS011;14785;52.556;13.430;2024-02-21T11:28:36;26.25;;;21.85;;
27293;SDS011;14785;52.556;13.430;2024-02-21T11:31:06;26.50;;;23.73;;
27293;SDS011;14785;52.556;13.430;2024-02-21T11:33:42;29.35;;;23.35;;
27293;SDS011;14785;52.556;13.430;2024-02-21T11:36:09;26.40;;;23.92;;
27293;SDS011;14785;52.556;13.430;2024-02-21T11:38:35;27.05;;;24.17;;
27293;SDS011;14785;52.556;13.430;2024-02-21T11:41:02;25.42;;;21.73;;
27293;SDS011;14785;52.556;13.430;2024-02-21T11:43:28;24.75;;;19.17;;
27293;SDS011;14785;52.556;13.430;2024-02-21T11:46:00;22.20;;;18.30;;
27293;SDS011;14785;52.556;13.430;2024-02-21T11:48:26;21.33;;;19.17;;
27293;SDS011;14785;52.556;13.430;2024-02-21T11:50:53;22.33;;;19.35;;
27293;SDS011;14785;52.556;13.430;2024-02-21T11:53:20;23.48;;;21.17;;
27293;SDS011;14785;52.556;13.430;2024-02-21T11:55:45;24.30;;;20.73;;
27293;SDS011;14785;52.556;13.430;2024-02-21T11:58:11;27.77;;;25.07;;
27293;SDS011;14785;52.556;13.430;2024-02-21T12:00:36;33.47;;;30.77;;
27293;SDS011;14785;52.556;13.430;2024-02-21T12:03:02;25.90;;;23.23;;
27293;SDS011;14785;52.556;13.430;2024-02-21T12:05:30;22.70;;;19.80;;
27293;SDS011;14785;52.556;13.430;2024-02-21T12:07:56;24.95;;;22.42;;
27293;SDS011;14785;52.556;13.430;2024-02-21T12:10:23;21.13;;;19.08;;
27293;SDS011;14785;52.556;13.430;2024-02-21T12:12:48;21.63;;;18.37;;
27293;SDS011;14785;52.556;13.430;2024-02-21T12:15:17;32.33;;;29.23;;
27293;SDS011;14785;52.556;13.430;2024-02-21T12:17:43;28.90;;;26.02;;
27293;SDS011;14785;52.556;13.430;2024-02-21T12:20:09;23.20;;;20.75;;
27293;SDS011;14785;52.556;13.430;2024-02-21T12:22:39;33.63;;;30.63;;
27293;SDS011;14785;52.556;13.430;2024-02-21T12:25:04;29.77;;;27.03;;
27293;SDS011;14785;52.556;13.430;2024-02-21T12:27:42;25.83;;;20.08;;
27293;SDS011;14785;52.556;13.430;2024-02-21T12:30:08;25.63;;;23.27;;
27293;SDS011;14785;52.556;13.430;2024-02-21T12:35:00;18.52;;;15.80;;
27293;SDS011;14785;52.556;13.430;2024-02-21T12:37:25;20.00;;;16.67;;
27293;SDS011;14785;52.556;13.430;2024-02-21T12:42:17;23.23;;;20.80;;
27293;SDS011;14785;52.556;13.430;2024-02-21T12:44:43;17.33;;;14.27;;
27293;SDS011;14785;52.556;13.430;2024-02-21T12:47:08;18.30;;;15.73;;
27293;SDS011;14785;52.556;13.430;2024-02-21T12:49:34;19.57;;;17.07;;
27293;SDS011;14785;52.556;13.430;2024-02-21T12:51:59;15.90;;;13.50;;
27293;SDS011;14785;52.556;13.430;2024-02-21T12:54:24;19.03;;;13.23;;
27293;SDS011;14785;52.556;13.430;2024-02-21T12:56:51;16.75;;;14.40;;
27293;SDS011;14785;52.556;13.430;2024-02-21T12:59:16;20.57;;;18.47;;
27293;SDS011;14785;52.556;13.430;2024-02-21T13:01:42;17.38;;;13.18;;
27293;SDS011;14785;52.556;13.430;2024-02-21T13:04:07;18.40;;;13.23;;
27293;SDS011;14785;52.556;13.430;2024-02-21T13:06:33;18.77;;;16.80;;
27293;SDS011;14785;52.556;13.430;2024-02-21T13:08:58;19.50;;;16.60;;
27293;SDS011;14785;52.556;13.430;2024-02-21T13:11:25;16.33;;;13.40;;
27293;SDS011;14785;52.556;13.430;2024-02-21T13:13:53;14.18;;;11.52;;
27293;SDS011;14785;52.556;13.430;2024-02-21T13:16:18;17.67;;;15.87;;
27293;SDS011;14785;52.556;13.430;2024-02-21T13:21:12;18.52;;;13.07;;
27293;SDS011;14785;52.556;13.430;2024-02-21T13:23:37;16.23;;;13.30;;
27293;SDS011;14785;52.556;13.430;2024-02-21T13:26:04;17.58;;;13.07;;
27293;SDS011;14785;52.556;13.430;2024-02-21T13:28:30;16.45;;;13.10;;
27293;SDS011;14785;52.556;13.430;2024-02-21T13:30:56;14.17;;;11.97;;
27293;SDS011;14785;52.556;13.430;2024-02-21T13:33:23;19.27;;;14.25;;
27293;SDS011;14785;52.556;13.430;2024-02-21T13:35:48;20.63;;;13.33;;
27293;SDS011;14785;52.556;13.430;2024-02-21T13:38:13;14.57;;;11.30;;
27293;SDS011;14785;52.556;13.430;2024-02-21T13:40:39;18.63;;;11.18;;
27293;SDS011;14785;52.556;13.430;2024-02-21T13:43:07;15.10;;;13.27;;
27293;SDS011;14785;52.556;13.430;2024-02-21T13:47:59;22.83;;;14.50;;
27293;SDS011;14785;52.556;13.430;2024-02-21T13:50:27;17.43;;;15.73;;
27293;SDS011;14785;52.556;13.430;2024-02-21T13:52:56;16.13;;;12.90;;
27293;SDS011;14785;52.556;13.430;2024-02-21T13:55:21;19.60;;;16.00;;
27293;SDS011;14785;52.556;13.430;2024-02-21T13:57:47;15.87;;;13.60;;
27293;SDS011;14785;52.556;13.430;2024-02-21T14:00:13;17.97;;;15.17;;
27293;SDS011;14785;52.556;13.430;2024-02-21T14:02:39;20.35;;;16.02;;
27293;SDS011;14785;52.556;13.430;2024-02-21T14:05:05;16.97;;;15.20;;
27293;SDS011;14785;52.556;13.430;2024-02-21T14:07:31;23.85;;;20.45;;
27293;SDS011;14785;52.556;13.430;2024-02-21T14:09:59;20.98;;;18.70;;
27293;SDS011;14785;52.556;13.430;2024-02-21T14:12:25;25.67;;;20.33;;
27293;SDS011;14785;52.556;13.430;2024-02-21T14:14:50;23.63;;;20.83;;
27293;SDS011;14785;52.556;13.430;2024-02-21T14:17:17;19.55;;;14.73;;
27293;SDS011;14785;52.556;13.430;2024-02-21T14:19:43;16.00;;;13.23;;
27293;SDS011;14785;52.556;13.430;2024-02-21T14:22:09;15.82;;;13.75;;
27293;SDS011;14785;52.556;13.430;2024-02-21T14:24:36;18.95;;;16.25;;
27293;SDS011;14785;52.556;13.430;2024-02-21T14:27:05;25.67;;;19.02;;
27293;SDS011;14785;52.556;13.430;2024-02-21T14:29:31;22.45;;;20.30;;
27293;SDS011;14785;52.556;13.430;2024-02-21T14:31:56;26.90;;;24.30;;
27293;SDS011;14785;52.556;13.430;2024-02-21T14:34:22;19.95;;;18.17;;
27293;SDS011;14785;52.556;13.430;2024-02-21T14:36:48;24.60;;;22.17;;
27293;SDS011;14785;52.556;13.430;2024-02-21T14:39:13;28.20;;;26.00;;
27293;SDS011;14785;52.556;13.430;2024-02-21T14:41:40;16.52;;;14.63;;
27293;SDS011;14785;52.556;13.430;2024-02-21T14:44:08;17.77;;;16.15;;
27293;SDS011;14785;52.556;13.430;2024-02-21T14:46:34;20.05;;;15.63;;
27293;SDS011;14785;52.556;13.430;2024-02-21T14:49:00;19.00;;;16.30;;
27293;SDS011;14785;52.556;13.430;2024-02-21T14:51:26;18.00;;;11.43;;
27293;SDS011;14785;52.556;13.430;2024-02-21T14:53:51;14.83;;;12.27;;